createdAt,value
2022-10-19T00:01:12.034Z,1.10
2022-10-19T00:03:39.489Z,1.25
2022-10-19T00:06:15.577Z,1.20
2022-10-19T00:08:43.421Z,2.30
2022-10-19T00:11:11.287Z,2.88
2022-10-19T00:13:38.643Z,0.90
2022-10-19T00:16:11.857Z,1.00
2022-10-19T00:18:41.070Z,1.45
2022-10-19T00:21:09.714Z,2.00
2022-10-19T00:23:37.150Z,1.02
2022-10-19T00:26:04.289Z,1.30
2022-10-19T00:28:31.789Z,1.63
2022-10-19T00:31:06.597Z,1.13
2022-10-19T00:33:33.946Z,1.42
2022-10-19T00:36:00.871Z,0.95
2022-10-19T00:38:27.684Z,1.52
2022-10-19T00:40:54.560Z,1.30
2022-10-19T00:43:24.234Z,1.02
2022-10-19T00:45:51.209Z,1.65
2022-10-19T00:48:25.766Z,0.80
2022-10-19T00:50:55.667Z,1.83
2022-10-19T00:53:26.186Z,1.25
2022-10-19T00:55:53.358Z,1.83
2022-10-19T00:58:20.241Z,1.88
2022-10-19T01:00:47.124Z,1.73
2022-10-19T01:03:14.737Z,1.60
2022-10-19T01:05:41.698Z,1.52
2022-10-19T01:08:10.304Z,1.08
2022-10-19T01:10:58.030Z,1.40
2022-10-19T01:13:24.804Z,1.80
2022-10-19T01:16:04.222Z,1.63
2022-10-19T01:18:40.333Z,1.65
2022-10-19T01:21:24.776Z,1.63
2022-10-19T01:24:10.345Z,0.52
2022-10-19T01:26:55.943Z,1.15
2022-10-19T01:30:00.169Z,2.10
2022-10-19T01:32:53.675Z,1.60
2022-10-19T01:35:33.525Z,1.65
2022-10-19T01:38:09.234Z,0.90
2022-10-19T01:40:35.941Z,1.00
2022-10-19T01:43:19.993Z,1.23
2022-10-19T01:45:58.369Z,0.90
2022-10-19T01:48:34.653Z,1.13
2022-10-19T01:51:28.329Z,0.70
2022-10-19T01:54:00.316Z,0.82
2022-10-19T01:56:29.917Z,1.20
2022-10-19T01:59:01.029Z,1.60
2022-10-19T02:01:33.185Z,1.02
2022-10-19T02:04:00.705Z,1.20
2022-10-19T02:06:28.321Z,1.73
2022-10-19T02:08:55.242Z,0.90
2022-10-19T02:11:23.935Z,2.35
2022-10-19T02:13:56.629Z,1.55
2022-10-19T02:21:24.537Z,1.02
2022-10-19T02:23:54.059Z,0.82
2022-10-19T02:26:21.289Z,1.17
2022-10-19T02:28:48.728Z,1.15
2022-10-19T02:31:15.718Z,1.33
2022-10-19T02:33:42.736Z,1.65
2022-10-19T02:36:09.506Z,1.00
2022-10-19T02:38:36.512Z,1.40
2022-10-19T02:41:24.189Z,1.48
2022-10-19T02:44:03.390Z,0.90
2022-10-19T02:46:36.471Z,1.13
2022-10-19T02:49:05.453Z,1.10
2022-10-19T02:51:37.040Z,0.80
2022-10-19T02:54:06.021Z,1.30
2022-10-19T02:56:34.348Z,1.10
2022-10-19T02:59:01.833Z,1.60
2022-10-19T03:01:28.682Z,1.40
2022-10-19T03:03:55.547Z,1.42
2022-10-19T03:06:22.366Z,1.15
2022-10-19T03:08:49.208Z,1.42
2022-10-19T03:11:16.047Z,1.45
2022-10-19T03:13:43.432Z,0.98
2022-10-19T03:16:12.430Z,1.52
2022-10-19T03:18:40.180Z,2.42
2022-10-19T03:21:10.164Z,1.00
2022-10-19T03:23:37.940Z,1.63
2022-10-19T03:26:07.640Z,1.58
2022-10-19T03:28:36.850Z,1.00
2022-10-19T03:31:03.690Z,1.35
2022-10-19T03:33:30.466Z,1.52
2022-10-19T03:36:21.673Z,1.48
2022-10-19T03:38:51.318Z,1.00
2022-10-19T03:41:19.247Z,1.05
2022-10-19T03:43:46.230Z,1.60
2022-10-19T03:46:13.245Z,0.90
2022-10-19T03:48:40.083Z,1.95
2022-10-19T03:51:12.678Z,2.30
2022-10-19T03:56:12.122Z,2.60
2022-10-19T03:58:40.628Z,1.50
2022-10-19T04:01:13.359Z,1.55
2022-10-19T04:03:40.320Z,1.67
2022-10-19T04:06:21.174Z,2.55
2022-10-19T04:08:49.903Z,1.75
2022-10-19T04:11:18.539Z,1.52
2022-10-19T04:13:50.760Z,1.73
2022-10-19T04:16:19.084Z,3.40
2022-10-19T04:18:45.982Z,2.53
2022-10-19T04:21:26.479Z,1.73
2022-10-19T04:23:57.789Z,1.70
2022-10-19T04:26:24.677Z,2.83
2022-10-19T04:28:51.528Z,1.42
2022-10-19T04:31:18.664Z,1.33
2022-10-19T04:36:13.630Z,1.70
2022-10-19T04:38:40.737Z,1.90
2022-10-19T04:41:10.362Z,1.38
2022-10-19T04:43:37.792Z,2.05
2022-10-19T04:46:10.521Z,2.30
2022-10-19T04:48:38.418Z,3.15
2022-10-19T04:51:06.034Z,2.08
2022-10-19T04:53:34.033Z,2.30
2022-10-19T04:56:04.496Z,1.35
2022-10-19T04:58:31.289Z,1.88
2022-10-19T05:00:58.173Z,1.83
2022-10-19T05:03:24.986Z,1.65
2022-10-19T05:05:51.774Z,1.40
2022-10-19T05:08:18.526Z,1.65
2022-10-19T05:10:47.626Z,1.83
2022-10-19T05:13:14.760Z,1.75
2022-10-19T05:15:41.660Z,2.55
2022-10-19T05:18:08.434Z,2.90
2022-10-19T05:20:35.257Z,2.65
2022-10-19T05:23:06.222Z,2.97
2022-10-19T05:25:34.238Z,1.90
2022-10-19T05:28:00.988Z,3.55
2022-10-19T05:30:27.803Z,1.88
2022-10-19T05:32:54.675Z,1.42
2022-10-19T05:35:22.621Z,1.58
2022-10-19T05:37:54.046Z,1.38
2022-10-19T05:40:21.090Z,1.25
2022-10-19T05:42:47.854Z,2.08
2022-10-19T05:45:14.750Z,3.65
2022-10-19T05:47:41.514Z,2.70
2022-10-19T05:50:08.894Z,2.10
2022-10-19T05:52:35.670Z,2.55
2022-10-19T05:55:02.444Z,2.47
2022-10-19T05:57:31.717Z,1.73
2022-10-19T05:59:58.734Z,2.97
2022-10-19T06:02:25.485Z,2.05
2022-10-19T06:04:52.298Z,1.77
2022-10-19T06:07:19.073Z,1.83
2022-10-19T06:09:46.160Z,2.05
2022-10-19T06:12:14.102Z,2.45
2022-10-19T06:14:43.064Z,1.90
2022-10-19T06:17:09.920Z,1.65
2022-10-19T06:19:37.012Z,1.83
2022-10-19T06:22:03.858Z,3.35
2022-10-19T06:24:30.711Z,2.15
2022-10-19T06:26:57.461Z,2.85
2022-10-19T06:29:24.227Z,2.05
2022-10-19T06:31:52.111Z,3.33
2022-10-19T06:34:19.059Z,2.55
2022-10-19T06:36:45.973Z,2.40
2022-10-19T06:39:12.730Z,2.97
2022-10-19T06:41:39.617Z,2.72
2022-10-19T06:44:06.419Z,2.03
2022-10-19T06:46:33.933Z,3.10
2022-10-19T06:49:02.427Z,2.25
2022-10-19T06:51:30.843Z,2.38
2022-10-19T06:53:57.799Z,2.55
2022-10-19T06:56:26.146Z,3.50
2022-10-19T06:58:53.878Z,3.30
2022-10-19T07:01:21.087Z,2.80
2022-10-19T07:03:47.921Z,2.88
2022-10-19T07:06:14.752Z,2.75
2022-10-19T07:08:42.680Z,2.72
2022-10-19T07:11:16.888Z,1.50
2022-10-19T07:13:44.394Z,1.92
2022-10-19T07:16:20.690Z,2.35
2022-10-19T07:19:03.390Z,1.83
2022-10-19T07:21:42.490Z,1.83
2022-10-19T07:24:09.678Z,2.75
2022-10-19T07:26:36.820Z,2.63
2022-10-19T07:29:04.247Z,1.90
2022-10-19T07:31:32.474Z,2.08
2022-10-19T07:34:01.683Z,3.17
2022-10-19T07:36:30.601Z,2.08
2022-10-19T07:38:57.765Z,2.55
2022-10-19T07:41:26.352Z,2.40
2022-10-19T07:43:53.569Z,2.50
2022-10-19T07:46:23.525Z,2.58
2022-10-19T07:48:50.387Z,2.20
2022-10-19T07:51:19.599Z,1.88
2022-10-19T07:53:46.770Z,3.35
2022-10-19T07:56:21.186Z,3.70
2022-10-19T07:58:49.136Z,2.38
2022-10-19T08:01:22.087Z,2.38
2022-10-19T08:06:37.470Z,2.53
2022-10-19T08:09:05.420Z,1.95
2022-10-19T08:11:34.301Z,1.88
2022-10-19T08:14:03.211Z,3.10
2022-10-19T08:16:41.719Z,3.00
2022-10-19T08:19:11.143Z,2.53
2022-10-19T08:21:40.190Z,3.00
2022-10-19T08:24:07.427Z,1.67
2022-10-19T08:26:38.193Z,2.30
2022-10-19T08:29:14.965Z,2.70
2022-10-19T08:31:43.794Z,2.13
2022-10-19T08:34:11.720Z,3.45
2022-10-19T08:36:38.689Z,2.92
2022-10-19T08:39:07.874Z,2.65
2022-10-19T08:41:40.692Z,2.15
2022-10-19T08:44:22.697Z,2.10
2022-10-19T08:47:28.395Z,2.77
2022-10-19T08:49:55.951Z,2.08
2022-10-19T08:52:29.589Z,2.83
2022-10-19T08:55:09.143Z,2.53
2022-10-19T08:57:44.695Z,2.60
2022-10-19T09:00:33.803Z,2.47
2022-10-19T09:03:04.007Z,2.53
2022-10-19T09:05:46.677Z,2.95
2022-10-19T09:08:17.643Z,2.42
2022-10-19T09:10:49.025Z,2.80
2022-10-19T09:13:18.678Z,2.28
2022-10-19T09:15:50.809Z,2.17
2022-10-19T09:18:25.611Z,1.75
2022-10-19T09:21:02.003Z,3.45
2022-10-19T09:23:30.446Z,3.17
2022-10-19T09:25:58.211Z,2.47
2022-10-19T09:28:43.290Z,2.50
2022-10-19T09:31:17.181Z,2.97
2022-10-19T09:33:50.121Z,2.65
2022-10-19T09:36:22.881Z,3.72
2022-10-19T09:38:54.694Z,2.80
2022-10-19T09:41:23.506Z,2.22
2022-10-19T09:43:53.937Z,3.42
2022-10-19T09:46:51.897Z,3.35
2022-10-19T09:49:40.581Z,3.15
2022-10-19T09:52:24.152Z,3.50
2022-10-19T09:55:07.116Z,3.40
2022-10-19T09:57:42.577Z,3.00
2022-10-19T10:00:26.566Z,6.25
2022-10-19T10:02:56.687Z,2.42
2022-10-19T10:05:46.914Z,2.63
2022-10-19T10:08:18.239Z,4.25
2022-10-19T10:10:49.577Z,3.42
2022-10-19T10:13:24.749Z,2.95
2022-10-19T10:16:01.822Z,3.65
2022-10-19T10:18:30.638Z,4.22
2022-10-19T10:21:11.931Z,3.38
2022-10-19T10:23:39.066Z,2.35
2022-10-19T10:26:18.953Z,3.30
2022-10-19T10:28:51.898Z,2.35
2022-10-19T10:31:26.062Z,3.28
2022-10-19T10:33:56.650Z,2.85
2022-10-19T10:36:26.567Z,3.28
2022-10-19T10:41:39.591Z,2.63
2022-10-19T10:44:25.065Z,3.33
2022-10-19T10:46:56.675Z,3.75
2022-10-19T10:49:36.389Z,3.17
2022-10-19T10:52:17.476Z,2.78
2022-10-19T10:55:04.994Z,2.50
2022-10-19T10:57:44.001Z,1.95
2022-10-19T11:00:21.328Z,2.55
2022-10-19T11:03:01.607Z,3.85
2022-10-19T11:05:48.607Z,2.22
2022-10-19T11:08:32.327Z,3.20
2022-10-19T11:11:28.113Z,4.20
2022-10-19T11:14:21.417Z,2.63
2022-10-19T11:16:53.381Z,2.30
2022-10-19T11:19:44.500Z,3.17
2022-10-19T11:22:44.242Z,2.33
2022-10-19T11:25:29.161Z,3.47
2022-10-19T11:28:01.581Z,3.85
2022-10-19T11:33:15.716Z,2.60
2022-10-19T11:35:52.980Z,3.00
2022-10-19T11:38:31.046Z,2.60
2022-10-19T11:41:20.036Z,3.35
2022-10-19T11:44:11.487Z,2.75
2022-10-19T11:46:54.655Z,3.22
2022-10-19T11:49:45.961Z,2.42
2022-10-19T11:52:21.234Z,3.47
2022-10-19T11:55:21.714Z,2.80
2022-10-19T11:58:16.034Z,3.28
2022-10-19T12:01:12.766Z,2.13
2022-10-19T12:03:49.438Z,3.05
2022-10-19T12:06:21.880Z,3.28
2022-10-19T12:12:00.109Z,3.72
2022-10-19T12:14:31.810Z,3.58
2022-10-19T12:17:05.830Z,3.33
2022-10-19T12:19:42.651Z,4.15
2022-10-19T12:22:19.323Z,2.33
2022-10-19T12:24:46.565Z,3.90
2022-10-19T12:27:16.534Z,3.92
2022-10-19T12:29:47.952Z,3.50
2022-10-19T12:32:19.718Z,4.28
2022-10-19T12:35:00.353Z,3.03
2022-10-19T12:37:41.379Z,2.67
2022-10-19T12:40:24.478Z,2.88
2022-10-19T12:43:15.074Z,3.28
2022-10-19T12:45:48.390Z,4.28
2022-10-19T12:48:20.627Z,3.45
2022-10-19T12:50:50.439Z,3.30
2022-10-19T12:53:39.616Z,2.65
2022-10-19T12:56:15.338Z,3.45
2022-10-19T12:58:46.606Z,4.25
2022-10-19T13:04:33.408Z,3.13
2022-10-19T13:07:01.836Z,3.30
2022-10-19T13:09:38.366Z,3.58
2022-10-19T13:12:17.682Z,3.83
2022-10-19T13:14:50.883Z,2.65
2022-10-19T13:17:46.243Z,3.03
2022-10-19T13:20:18.817Z,2.72
2022-10-19T13:22:48.995Z,3.85
2022-10-19T13:25:27.046Z,3.00
2022-10-19T13:28:06.302Z,3.95
2022-10-19T13:30:38.960Z,2.75
2022-10-19T13:33:26.926Z,2.78
2022-10-19T13:35:59.807Z,3.28
2022-10-19T13:38:40.723Z,2.75
2022-10-19T13:41:28.637Z,2.92
2022-10-19T13:44:19.839Z,3.38
2022-10-19T13:46:58.531Z,3.45
2022-10-19T13:49:30.371Z,3.10
2022-10-19T13:52:02.087Z,3.75
2022-10-19T13:54:50.213Z,3.17
2022-10-19T13:57:23.131Z,2.92
2022-10-19T14:00:05.130Z,3.47
2022-10-19T14:02:37.854Z,2.88
2022-10-19T14:05:29.367Z,2.20
2022-10-19T14:08:33.457Z,3.20
2022-10-19T14:11:46.042Z,3.00
2022-10-19T14:14:22.341Z,2.72
2022-10-19T14:16:52.186Z,3.50
2022-10-19T14:19:43.993Z,2.90
2022-10-19T14:22:24.945Z,4.13
2022-10-19T14:24:52.221Z,2.33
2022-10-19T14:27:24.076Z,3.22
2022-10-19T14:29:53.454Z,2.67
2022-10-19T14:32:27.211Z,3.47
2022-10-19T14:34:57.318Z,3.55
2022-10-19T14:37:26.491Z,2.55
2022-10-19T14:40:05.874Z,2.72
2022-10-19T14:42:44.819Z,3.00
2022-10-19T15:47:14.923Z,3.83
2022-10-19T15:49:41.628Z,4.25
2022-10-19T15:52:37.890Z,3.72
2022-10-19T15:55:04.956Z,3.72
2022-10-19T15:57:38.957Z,3.88
2022-10-19T16:00:15.266Z,3.53
2022-10-19T16:02:42.219Z,3.22
2022-10-19T16:05:09.188Z,4.53
2022-10-19T16:07:39.270Z,4.25
2022-10-19T16:10:07.802Z,3.33
2022-10-19T16:12:34.766Z,3.05
2022-10-19T16:15:02.399Z,4.30
2022-10-19T16:17:29.435Z,3.53
2022-10-19T16:19:56.275Z,3.38
2022-10-19T16:22:23.068Z,2.70
2022-10-19T16:24:49.974Z,4.25
2022-10-19T16:27:17.108Z,3.75
2022-10-19T16:29:44.651Z,3.20
2022-10-19T16:32:11.556Z,3.30
2022-10-19T16:34:38.625Z,4.90
2022-10-19T16:37:07.086Z,3.35
2022-10-19T16:39:34.894Z,4.88
2022-10-19T16:42:01.786Z,3.53
2022-10-19T16:44:28.671Z,3.60
2022-10-19T16:46:59.010Z,3.53
2022-10-19T16:49:26.336Z,3.95
2022-10-19T16:51:56.340Z,4.15
2022-10-19T16:54:26.842Z,5.05
2022-10-19T16:56:55.567Z,3.53
2022-10-19T16:59:22.756Z,4.00
2022-10-19T17:01:49.795Z,3.90
2022-10-19T17:04:18.070Z,3.60
2022-10-19T17:06:45.006Z,3.13
2022-10-19T17:09:40.220Z,4.07
2022-10-19T17:11:58.679Z,3.90
2022-10-19T17:14:25.455Z,3.75
2022-10-19T17:16:52.294Z,5.22
2022-10-19T17:19:19.206Z,4.28
2022-10-19T17:21:46.520Z,4.20
2022-10-19T17:24:21.758Z,4.68
2022-10-19T17:26:50.985Z,3.50
2022-10-19T17:29:18.066Z,4.15
2022-10-19T17:31:45.009Z,3.15
2022-10-19T17:34:12.161Z,4.68
2022-10-19T17:36:41.962Z,5.40
2022-10-19T17:39:13.706Z,5.03
2022-10-19T17:41:40.607Z,3.90
2022-10-19T17:44:07.440Z,5.32
2022-10-19T17:46:35.637Z,4.07
2022-10-19T17:49:02.866Z,4.45
2022-10-19T17:51:32.602Z,3.85
2022-10-19T17:54:08.660Z,3.78
2022-10-19T17:56:36.522Z,3.55
2022-10-19T17:59:04.282Z,5.35
2022-10-19T18:01:31.186Z,4.25
2022-10-19T18:03:58.070Z,4.18
2022-10-19T18:06:28.138Z,4.63
2022-10-19T18:08:56.919Z,4.32
2022-10-19T18:11:32.193Z,4.97
2022-10-19T18:14:01.015Z,4.68
2022-10-19T18:16:33.997Z,4.00
2022-10-19T18:19:02.210Z,4.18
2022-10-19T18:21:31.792Z,4.75
2022-10-19T18:24:00.535Z,5.55
2022-10-19T18:26:29.871Z,4.97
2022-10-19T18:28:57.798Z,3.95
2022-10-19T18:31:29.224Z,5.00
2022-10-19T18:33:58.788Z,4.78
2022-10-19T18:36:25.693Z,4.10
2022-10-19T18:38:54.774Z,5.18
2022-10-19T18:41:22.266Z,4.18
2022-10-19T18:44:04.977Z,5.25
2022-10-19T18:46:33.956Z,4.78
2022-10-19T18:49:01.438Z,3.90
2022-10-19T18:51:29.000Z,5.45
2022-10-19T18:53:56.198Z,5.13
2022-10-19T18:56:23.602Z,4.60
2022-10-19T18:58:51.086Z,5.35
2022-10-19T19:01:24.215Z,5.63
2022-10-19T19:03:53.567Z,4.93
2022-10-19T19:06:33.137Z,5.53
2022-10-19T19:09:01.279Z,4.88
2022-10-19T19:11:32.958Z,5.07
2022-10-19T19:14:11.715Z,6.03
2022-10-19T19:16:39.401Z,4.38
2022-10-19T19:19:07.148Z,4.85
2022-10-19T19:21:35.655Z,5.60
2022-10-19T19:24:06.498Z,5.05
2022-10-19T19:26:39.549Z,4.65
2022-10-19T19:29:06.460Z,6.30
2022-10-19T19:31:33.635Z,5.63
2022-10-19T19:34:03.074Z,5.22
2022-10-19T19:36:29.955Z,5.45
2022-10-19T19:38:57.413Z,7.30
2022-10-19T19:41:24.254Z,5.20
2022-10-19T19:43:51.060Z,6.03
2022-10-19T19:46:19.726Z,5.00
2022-10-19T19:48:48.287Z,5.03
2022-10-19T19:51:18.289Z,6.22
2022-10-19T19:53:46.374Z,6.25
2022-10-19T19:56:15.577Z,5.43
2022-10-19T19:58:45.257Z,6.53
2022-10-19T20:01:18.671Z,7.45
2022-10-19T20:03:46.400Z,6.57
2022-10-19T20:06:15.274Z,6.70
2022-10-19T20:08:42.274Z,5.80
2022-10-19T20:11:11.472Z,7.18
2022-10-19T20:13:38.352Z,5.00
2022-10-19T20:16:13.805Z,6.30
2022-10-19T20:18:51.415Z,5.60
2022-10-19T20:21:21.574Z,6.32
2022-10-19T20:23:49.238Z,6.15
2022-10-19T20:26:25.463Z,5.32
2022-10-19T20:28:53.317Z,6.10
2022-10-19T20:31:21.203Z,5.35
2022-10-19T20:33:48.401Z,5.97
2022-10-19T20:36:26.490Z,6.15
2022-10-19T20:38:58.877Z,5.70
2022-10-19T20:41:28.630Z,5.78
2022-10-19T20:43:57.207Z,6.15
2022-10-19T20:46:29.767Z,5.70
2022-10-19T20:48:59.944Z,7.07
2022-10-19T20:51:39.053Z,5.75
2022-10-19T20:54:09.906Z,7.80
2022-10-19T20:56:39.176Z,6.25
2022-10-19T20:59:18.622Z,5.97
2022-10-19T21:01:49.298Z,7.25
2022-10-19T21:04:16.781Z,5.85
2022-10-19T21:06:46.368Z,5.80
2022-10-19T21:09:15.782Z,5.63
2022-10-19T21:11:44.042Z,6.80
2022-10-19T21:14:14.113Z,6.85
2022-10-19T21:16:41.299Z,5.50
2022-10-19T21:19:13.857Z,6.45
2022-10-19T21:24:14.110Z,5.53
2022-10-19T21:26:41.894Z,6.72
2022-10-19T21:29:10.835Z,6.85
2022-10-19T21:31:40.783Z,6.72
2022-10-19T21:34:11.946Z,6.30
2022-10-19T21:36:38.978Z,5.45
2022-10-19T21:39:05.896Z,6.22
2022-10-19T21:41:32.738Z,6.00
2022-10-19T21:44:00.321Z,5.82
2022-10-19T21:46:27.443Z,7.15
2022-10-19T21:48:55.248Z,6.30
2022-10-19T21:51:39.229Z,5.38
2022-10-19T21:54:07.970Z,6.43
2022-10-19T21:56:34.989Z,6.25
2022-10-19T21:59:01.878Z,6.65
2022-10-19T22:01:30.109Z,6.45
2022-10-19T22:03:58.621Z,7.13
2022-10-19T22:06:27.787Z,5.93
2022-10-19T22:08:55.544Z,5.43
2022-10-19T22:11:23.173Z,6.35
2022-10-19T22:13:53.935Z,6.88
2022-10-19T22:16:21.164Z,6.75
2022-10-19T22:18:48.635Z,5.50
2022-10-19T22:21:20.404Z,6.07
2022-10-19T22:23:52.481Z,6.53
2022-10-19T22:26:23.234Z,5.72
2022-10-19T22:28:50.393Z,6.40
2022-10-19T22:31:17.211Z,8.43
2022-10-19T22:33:43.958Z,6.47
2022-10-19T22:36:12.021Z,5.50
2022-10-19T22:38:39.906Z,5.97
2022-10-19T22:42:02.843Z,6.53
2022-10-19T22:44:29.877Z,6.30
2022-10-19T22:46:57.404Z,5.20
2022-10-19T22:49:24.589Z,5.85
2022-10-19T22:51:51.358Z,7.22
2022-10-19T22:54:18.122Z,6.38
2022-10-19T22:56:44.873Z,6.00
2022-10-19T22:59:11.685Z,6.78
2022-10-19T23:01:38.558Z,7.45
2022-10-19T23:04:05.638Z,6.10
2022-10-19T23:06:32.906Z,7.07
2022-10-19T23:08:59.709Z,6.13
2022-10-19T23:11:26.670Z,6.40
2022-10-19T23:13:53.482Z,5.53
2022-10-19T23:16:20.292Z,7.60
2022-10-19T23:18:47.361Z,6.07
2022-10-19T23:21:14.802Z,6.50
2022-10-19T23:23:42.149Z,6.55
2022-10-19T23:26:16.812Z,6.32
2022-10-19T23:28:46.077Z,6.13
2022-10-19T23:31:14.353Z,6.35
2022-10-19T23:33:41.868Z,6.28
2022-10-19T23:36:10.114Z,5.78
2022-10-19T23:38:36.956Z,6.75
2022-10-19T23:41:04.093Z,6.15
2022-10-19T23:43:31.565Z,7.00
2022-10-19T23:45:58.499Z,7.70
2022-10-19T23:48:25.618Z,7.30
2022-10-19T23:51:07.041Z,6.32
2022-10-19T23:53:38.482Z,7.80
2022-10-19T23:56:13.772Z,6.03
2022-10-19T23:58:40.732Z,6.75
